x

Cape San Martin - 55nm West Nw Of Morro Bay, Ca (46028) Wave Buoy

6:50am - Fri 26th Aug 2016 All times are PDT. -7 hours from GMT.

  • Sig Wave height 3.9ft
  • Swell Direction
  • Peak Period 15s
  • Average Period 7s
  • Wind
    4mph
  • Sea Temp 58°f
  • Air Temp 58°f
  • Sea Pressure 1014mb
  • Cape San Martin - 55nm West Nw Of Morro Bay, Ca
  • Cape San Martin - 55nm West Nw Of Morro Bay, Ca

More Historic Weather Station data

Upgrade to MSW Pro to gain access to the past 30 days of data for over 8000 Wavebouys and Weather Stations around the globe.

Join Pro

Comparision Forecast

View Surf forecast
   
Fri 08/26 6:50am 4ft 15s 7s 4
mph
1014mb 58f 58f
5:50am 4ft 14s 7s 2
mph
1013.5mb 58f 59f
4:50am 4ft 14s 7s 2
mph
1013.2mb 58f 59f
3:50am 4ft 14s 7s 2
mph
1013.2mb 58f 59f
2:50am 4.5ft 8s 7s 4 7 mph 1013.3mb 58f 59f
1:50am 3.5ft 15s 7s 4 9 mph 1013.3mb 58f 59f
12:50am 4ft 16s 7s 4 9 mph 1013.6mb 58f 59f
Thu 08/25 11:50pm 4ft 8s 6s 4 7 mph 1013.7mb 58f 60f
10:50pm 4ft 14s 7s 7 11 mph 1013.8mb 58f 60f
9:50pm 4.5ft 7s 7s 9
mph
1013.9mb 58f 60f
8:50pm 4.5ft 14s 7s 7 9 mph 1013.6mb 58f 60f
7:50pm 4.5ft 7s 7s 9 13 mph 1013.3mb 58f 59f
6:50pm 4.5ft 8s 7s 7 9 mph 1013.2mb 58f 59f
5:50pm 4.5ft 8s 7s 9
mph
1013.2mb 58f 58f
4:50pm 4ft 7s 6s 4 7 mph 1013.5mb 58f 58f
3:50pm 4ft 8s 6s 7
mph
1013.8mb 58f 58f
2:50pm 4.5ft 7s 6s 7 9 mph 1014.2mb 58f 58f
1:50pm 4ft 7s 6s 7 9 mph 1014.9mb 58f 58f
12:50pm 4ft 8s 6s 7 9 mph 1015.3mb 58f 58f
11:50am 3.5ft 7s 6s 11 13 mph 1015.7mb 58f 58f
10:50am 3.5ft 8s 6s 9 11 mph 1015.9mb 58f 58f
9:50am 3.5ft 7s 6s 7 9 mph 1015.7mb 58f 58f
8:50am 3.5ft 8s 6s 9 13 mph 1015.2mb 58f 58f
7:50am 4ft 8s 6s 11 16 mph 1015.1mb 58f 58f
6:50am 3.5ft 8s 6s 9 11 mph 1015.1mb 58f 58f
5:50am 3.5ft 7s 5s 13 16 mph 1014.6mb 58f 58f
4:50am 3.5ft 8s 6s 13 16 mph 1014.5mb 58f 58f
3:50am 3ft 5s 5s 11 16 mph 1014.4mb 58f 58f
2:50am 3.5ft 8s 5s 13 16 mph 1014.8mb 58f 58f
1:50am 3.5ft 7s 5s 11 13 mph 1015mb 58f 58f
12:50am 3.5ft 8s 5s 13 16 mph 1015.4mb 58f 58f
Wed 08/24 11:50pm 3.5ft 8s 5s 13 18 mph 1015.9mb 58f 58f
10:50pm 3.5ft 13s 5s 13 18 mph 1016.1mb 58f 58f
9:50pm 3.5ft 13s 5s 13 18 mph 1016.2mb 58f 58f
7:50pm 3.5ft 8s 5s 16 18 mph 1015.7mb 58f 58f
6:50pm 3ft 13s 5s 13 16 mph 1015.8mb 58f 59f
5:50pm 3.5ft 13s 6s 16 18 mph 1016.1mb 58f 59f
4:50pm 3ft 8s 5s 13 16 mph 1016.5mb 58f 59f
3:50pm 3ft 8s 6s 13 16 mph 1017.1mb 58f 59f
2:50pm 3ft 8s 6s 11 13 mph 1018mb 58f 59f
1:50pm 3ft 8s 6s 11 13 mph 1018.6mb 58f 59f
12:50pm 3.5ft 13s 6s 11 13 mph 1019.2mb 58f 59f
11:50am 3ft 8s 6s 11 13 mph 1019.5mb 58f 59f
10:50am 3.5ft 8s 6s 11 13 mph 1019.9mb 58f 59f
9:50am 3.5ft 8s  -  11 13 mph 1019.7mb 58f 58f
8:50am 3.5ft 8s 6s 11 13 mph 1019.6mb 58f 58f
7:50am 3.5ft 8s 6s 11
mph
1019.6mb 58f 58f
6:50am 3.5ft 8s 6s 11 13 mph 1019.1mb 58f 58f
5:50am 3.5ft 13s 6s 13 18 mph 1018.5mb 58f 58f
4:50am 3.5ft 8s 6s 13 18 mph 1018.2mb 58f 58f
2:50am 3.5ft 14s 6s 13 16 mph 1018.7mb 59f 58f
1:50am 3ft 8s 5s 11 13 mph 1018.9mb 59f 59f
12:50am 3.5ft 8s 6s 13 16 mph 1019.2mb 59f 58f
Tue 08/23 11:50pm 3.5ft 8s 5s 13 18 mph 1019.1mb 59f 59f
10:50pm 4ft 8s 5s 13 18 mph 1019.2mb 59f 59f
9:50pm 4ft 8s 5s 16 20 mph 1019.1mb 59f 59f
8:50pm 4ft 8s 6s 18 20 mph 1018.7mb 59f 60f
7:50pm 4ft 8s 6s 18 22 mph 1018.2mb 59f 60f
6:50pm 4ft 13s 6s 18 20 mph 1017.9mb 59f 60f
5:50pm 3.5ft 8s 6s 13 18 mph 1018mb 59f 60f
4:50pm 3.5ft 13s 6s 13 16 mph 1018.2mb 59f 60f
3:50pm 3.5ft 14s 6s 16 18 mph 1018.5mb 59f 60f
2:50pm 3.5ft 13s 7s 13 18 mph 1019.1mb 59f 60f
1:50pm 4ft 14s 7s 13 18 mph 1019.4mb 59f 60f
12:50pm 3.5ft 14s 7s 13 16 mph 1019.4mb 59f 60f
11:50am 3.5ft 13s 7s 13
mph
1019.4mb 59f 60f
10:50am 3.5ft 14s 6s 11 13 mph 1019.4mb 58f 59f
9:50am 3.5ft 14s 6s 11 13 mph 1018.7mb 58f 59f
8:50am 3.5ft 8s 6s 13 16 mph 1018.4mb 58f 59f
7:50am 3.5ft 14s 6s 11 13 mph 1017.8mb 58f 59f
6:50am 3.5ft 14s 7s 11 13 mph 1017.3mb 58f 59f
5:50am 3.5ft 14s 7s 11 13 mph 1016.5mb 58f 59f
4:50am 3.5ft 13s 7s 13 16 mph 1016mb 58f 60f
3:50am 3.5ft 15s 7s 11 16 mph 1016mb 58f 60f
2:50am 3.5ft 14s 7s 11 13 mph 1015.9mb 58f 60f
1:50am 3.5ft 14s 7s 4 7 mph 1016mb 58f 60f
12:50am 3.5ft 15s 7s 7
mph
1016mb 58f 60f
Mon 08/22 11:50pm 3.5ft 13s 6s 11 16 mph 1016.3mb 58f 60f
10:50pm 4ft 15s 5s 11 16 mph 1016.2mb 58f 60f
9:50pm 4ft 13s 6s 13 18 mph 1015.9mb 58f 60f
8:50pm 4.5ft 15s 7s 16 18 mph 1015.2mb 59f 60f
7:50pm 4ft 14s 6s 13 16 mph 1015mb 59f 60f
6:50pm 4ft 14s 7s 16 20 mph 1014.7mb 59f 60f
5:50pm 4ft 15s 8s 13 18 mph 1014.7mb 59f 61f
4:50pm 4.5ft 15s 8s 11 13 mph 1014.6mb 59f 61f
3:50pm 4ft 15s 8s 13 18 mph 1014.6mb 59f 61f
2:50pm 4ft 15s 8s 13 16 mph 1014.8mb 59f 61f